Terminal Aerodrome Forecast
Issued by NWS

Home | Current Version | Previous Version | Text Only | Print | Product List | Glossary On
Versions: 1 2 3 4 5 6 7 8 9 10 11 12 13 14 15 16 17 18
640
FTUS41 KILN 231459 AAB
TAFLUK
TAF AMD
KLUK 231459Z 2315/2412 21010KT P6SM -SHRA FEW015 OVC035
     FM232000 19009KT P6SM VCSH OVC050
     FM232300 26009KT P6SM -SHRA OVC025
     FM240600 23007KT P6SM BKN050=

USA.gov is the U.S. government's official web portal to all federal, state and local government web resources and services.